Monarch Pass, CO

1:04 AM MDT on September 03, 2014 (GMT -0600)
Monarch Pass | Change Station
CLOSE
Current Station
Airport
Location: Monarch Pass,
Elevation: 12031 ft
Nearby Weather Stations

Elev 12031 ft 38.48 °N, 106.32 °W | Updated 6 minutes ago

Clear
Clear
48 °F
Feels Like 48 °F
N
25
Wind Variable Wind from WSW

Today
High -- | Low -- °F
--% Chance of Precip.
Yesterday
High -- | Low -- °F
Precip. -- in
6:36 AM 7:31 PM
First Quarter, 59% visible
Pressure 30.60 in
Visibility 10.0 miles
Clouds Clear
Dew Point 28 °F
Humidity 46%
Rainfall 0.00 in
Snow Depth Not available.
UV 0 out of 12
Pollen 10.00 out of 12
Air Quality Not available.
Flu Activity Not available.
METAR KMYP 030658Z AUTO 24022KT 10SM CLR 09/M02 A3060 RMK AO2

More Conditions Fewer Conditions

Pressure 30.60 in
Visibility 10.0 miles
Clouds Clear
Dew Point 28 °F
Humidity 46%
Rainfall 0.00 in
Snow Depth Not available.
UV 0 out of 12
Pollen 10.00 out of 12
Air Quality Not available.
Flu Activity Not available.
METAR KMYP 030658Z AUTO 24022KT 10SM CLR 09/M02 A3060 RMK AO2

More Conditions Fewer Conditions

10-Day Weather Forecast

Almanac

Astronomy

Sep. 03, 2014 Rise Set
Actual Time 6:36 AM MDT 7:31 PM MDT
Civil Twilight 6:09 AM MDT 7:58 PM MDT
Nautical Twilight 5:37 AM MDT 8:30 PM MDT
Astronomical Twilight 5:03 AM MDT 9:03 PM MDT
Moon 3:13 PM MDT 12:35 AM MDT
Length of Visible Light 13h 49m
Length of Day
12h 55m
Tomorrow will be 2m 24s shorter.
First Quarter, 59% of the Moon is Illuminated
Today
First Quarter
Sep 8
Full
Sep 15
Last Quarter
Sep 24
New
Oct 1
First Quarter

Today's Extremes

State Highs State Lows

Community

WunderPhotos

Upload Photos

1,749,888 photos uploaded!

Nearby

Snow Depth

Station Depth Elevation
Porphyry Creek 0 in 10760 ft
Cochetopa Pass 0 in 10020 ft
Park Cone 0 in 9600 ft
Rough And Tumble 1 in 10360 ft
Medano Pass 0 in 9620 ft

Earthquake Activity

City Distance Mag. Time & Date
Trinidad, Colorado 108 miles 2.7 4:20 AM MDT
2014-08-31
Minimum magnitude displayed is 2.5.

Coastal Water Temperatures

Place Temperature
No Stations Reporting

Nearby Weather Stations